Aviation Digital Data Service (ADDS)

Output produced by TAFs form (1739 UTC 21 April 2018)
found at http://aviationweather.gov/adds/tafs/
 
TAF RJEC 211709Z 2118/2300 32006KT 9999 FEW008 BKN015 
     TEMPO 2118/2121 2000 BR 
     BECMG 2215/2218 18005KT